Time;durP1;ratioP1;P1;durP2;ratioP2;P2;SDS_P1;SDS_P2;PMS_P1;PMS_P2;Temp;Humidity;BMP_temperature;BMP_pressure;BME280_temperature;BME280_humidity;BME280_pressure;Samples;Min_cycle;Max_cycle;Signal;HPM_P1;HPM_P2
2023/10/06 00:02:28;;;;;;;3.83;3.30;;;23.50;62.30;;;;;;5095148;28;20505;-75
2023/10/06 00:04:58;;;;;;;4.33;3.30;;;23.50;62.30;;;;;;5099855;27;20554;-76
2023/10/06 00:07:26;;;;;;;4.37;3.73;;;23.50;62.00;;;;;;5100257;28;20456;-76
2023/10/06 00:09:56;;;;;;;4.47;3.47;;;23.40;62.00;;;;;;5098282;28;20543;-76
2023/10/06 00:12:26;;;;;;;4.00;3.17;;;23.50;62.00;;;;;;5108895;28;20444;-76
2023/10/06 00:14:57;;;;;;;3.30;3.00;;;23.40;61.90;;;;;;5094254;28;20448;-76
2023/10/06 00:17:28;;;;;;;4.30;2.93;;;23.40;62.00;;;;;;5110590;28;20473;-76
2023/10/06 00:19:59;;;;;;;4.70;3.10;;;23.40;62.10;;;;;;5105640;28;20461;-76
2023/10/06 00:22:29;;;;;;;5.03;3.13;;;23.40;62.20;;;;;;5092545;28;20566;-76
2023/10/06 00:24:59;;;;;;;4.40;3.80;;;23.40;62.10;;;;;;5100989;27;20449;-76
2023/10/06 00:27:30;;;;;;;3.73;3.30;;;23.40;62.10;;;;;;5109436;27;20463;-76
2023/10/06 00:29:59;;;;;;;4.00;3.20;;;23.40;62.00;;;;;;5105777;28;20444;-76
2023/10/06 00:32:28;;;;;;;3.60;3.20;;;23.40;62.00;;;;;;5096567;27;20481;-76
2023/10/06 00:35:10;;;;;;;3.70;3.20;;;23.40;62.00;;;;;;5103791;28;20452;-77
2023/10/06 00:37:40;;;;;;;4.57;3.60;;;23.40;62.20;;;;;;5106450;28;20460;-76
2023/10/06 00:40:19;;;;;;;4.77;3.27;;;23.40;62.10;;;;;;5109804;28;20449;-76
2023/10/06 00:42:51;;;;;;;8.07;3.50;;;23.40;62.00;;;;;;5105643;28;20438;-77
2023/10/06 00:45:22;;;;;;;3.90;3.50;;;23.40;62.10;;;;;;5113630;27;20795;-76
2023/10/06 00:47:53;;;;;;;3.40;3.07;;;23.40;61.90;;;;;;5080510;28;20801;-77
2023/10/06 00:50:24;;;;;;;3.57;3.23;;;23.40;61.80;;;;;;5106095;28;20445;-77
2023/10/06 00:52:53;;;;;;;3.53;3.13;;;23.40;61.70;;;;;;5098996;28;20555;-77
2023/10/06 00:55:23;;;;;;;5.67;4.40;;;23.30;61.50;;;;;;5105920;27;20455;-78
2023/10/06 00:57:53;;;;;;;4.40;3.20;;;23.30;61.70;;;;;;5099055;28;20473;-77
2023/10/06 01:00:22;;;;;;;4.07;3.10;;;23.30;61.60;;;;;;5101475;28;20894;-76
2023/10/06 01:02:50;;;;;;;4.17;3.43;;;23.30;62.00;;;;;;5103922;28;20465;-77
2023/10/06 01:05:20;;;;;;;4.03;3.60;;;23.30;61.90;;;;;;5091915;28;20880;-77
2023/10/06 01:07:49;;;;;;;4.43;3.30;;;23.30;61.60;;;;;;5107255;27;20461;-75
2023/10/06 01:10:22;;;;;;;3.50;3.13;;;23.30;61.80;;;;;;5110403;28;20448;-77
2023/10/06 01:12:52;;;;;;;3.70;3.40;;;23.30;61.60;;;;;;5108379;28;20421;-77
2023/10/06 01:15:20;;;;;;;7.00;3.47;;;23.30;61.50;;;;;;5089748;28;20922;-77
2023/10/06 01:17:49;;;;;;;3.30;2.93;;;23.20;61.50;;;;;;5090507;28;20463;-77
2023/10/06 01:20:35;;;;;;;3.97;2.77;;;23.20;61.50;;;;;;5107522;28;20464;-77
2023/10/06 01:23:20;;;;;;;3.83;2.87;;;23.20;61.50;;;;;;5099398;28;20532;-78
2023/10/06 01:25:54;;;;;;;3.47;3.17;;;23.20;61.60;;;;;;5088741;28;20467;-77
2023/10/06 01:28:24;;;;;;;3.50;3.20;;;23.20;61.70;;;;;;5089614;28;20462;-77
2023/10/06 01:30:52;;;;;;;4.70;4.13;;;23.20;61.50;;;;;;5101212;28;20451;-77
2023/10/06 01:33:21;;;;;;;3.50;3.20;;;23.20;61.60;;;;;;5091405;28;20459;-78
2023/10/06 01:35:49;;;;;;;4.70;3.97;;;23.20;61.70;;;;;;5085711;28;20514;-76
2023/10/06 01:38:22;;;;;;;3.80;2.80;;;23.20;61.70;;;;;;5104496;28;20478;-78
2023/10/06 01:40:53;;;;;;;3.87;2.90;;;23.20;61.70;;;;;;5092864;28;20451;-77
2023/10/06 01:43:23;;;;;;;4.07;3.10;;;23.20;61.70;;;;;;5101636;28;20831;-77
2023/10/06 01:45:52;;;;;;;3.73;3.43;;;23.20;61.70;;;;;;5100755;28;20463;-76
2023/10/06 01:48:23;;;;;;;4.00;3.20;;;23.20;61.70;;;;;;5104574;28;20448;-76
2023/10/06 01:50:54;;;;;;;4.20;3.30;;;23.20;61.60;;;;;;5096805;28;20531;-77
2023/10/06 01:53:25;;;;;;;3.27;2.97;;;23.20;61.60;;;;;;5105821;28;20444;-76
2023/10/06 01:55:54;;;;;;;3.33;3.03;;;23.20;61.60;;;;;;5092656;28;20459;-77
2023/10/06 01:58:22;;;;;;;4.23;3.30;;;23.20;61.50;;;;;;5081509;28;21217;-77
2023/10/06 02:00:51;;;;;;;4.77;3.27;;;23.20;61.40;;;;;;5087388;28;20450;-77
2023/10/06 02:03:21;;;;;;;3.07;2.77;;;23.10;61.20;;;;;;5098030;28;20475;-76
2023/10/06 02:05:54;;;;;;;3.13;2.83;;;23.10;61.50;;;;;;5085102;28;20452;-77
2023/10/06 02:08:26;;;;;;;4.03;3.20;;;23.10;61.30;;;;;;5091074;28;20493;-77
2023/10/06 02:10:55;;;;;;;3.30;2.97;;;23.10;61.40;;;;;;5104205;28;20464;-76
2023/10/06 02:13:24;;;;;;;4.50;3.03;;;23.10;61.30;;;;;;5086788;28;20443;-77
2023/10/06 02:15:58;;;;;;;3.50;3.20;;;23.10;61.40;;;;;;5085478;28;20460;-77
2023/10/06 02:18:35;;;;;;;3.00;2.70;;;23.10;61.30;;;;;;5111403;28;20455;-76
2023/10/06 02:21:11;;;;;;;3.60;3.20;;;23.10;61.30;;;;;;5082183;28;20961;-76
2023/10/06 02:23:42;;;;;;;3.60;3.30;;;23.10;61.40;;;;;;5100288;28;20536;-76
2023/10/06 02:26:12;;;;;;;4.23;3.10;;;23.10;61.20;;;;;;5105180;28;20445;-77
2023/10/06 02:28:43;;;;;;;3.90;3.50;;;23.10;61.30;;;;;;5085518;28;20452;-77
2023/10/06 02:31:12;;;;;;;3.40;3.13;;;23.10;61.00;;;;;;5114862;27;20479;-77
2023/10/06 02:33:41;;;;;;;3.50;3.10;;;23.10;60.90;;;;;;5114663;28;20891;-77
2023/10/06 02:36:17;;;;;;;3.60;3.27;;;23.10;61.00;;;;;;5105015;28;20499;-76
2023/10/06 02:38:48;;;;;;;2.63;2.43;;;23.10;60.80;;;;;;5102238;27;20474;-77
2023/10/06 02:41:19;;;;;;;3.47;3.13;;;23.00;60.90;;;;;;5134968;27;20430;-77
2023/10/06 02:43:48;;;;;;;3.40;3.10;;;23.10;61.10;;;;;;5135529;27;20420;-77
2023/10/06 02:46:20;;;;;;;4.10;3.67;;;23.00;61.10;;;;;;5110795;27;20447;-76
2023/10/06 02:48:52;;;;;;;2.80;2.60;;;23.00;60.90;;;;;;5101288;28;20463;-76
2023/10/06 02:51:28;;;;;;;3.30;3.00;;;23.00;61.00;;;;;;5104452;28;20453;-76
2023/10/06 02:54:13;;;;;;;3.87;3.00;;;23.00;60.90;;;;;;5081772;28;20802;-77
2023/10/06 02:56:43;;;;;;;3.47;3.17;;;23.00;60.80;;;;;;5113036;28;20440;-77
2023/10/06 02:59:21;;;;;;;3.63;3.03;;;23.00;60.90;;;;;;5101409;27;20451;-77
2023/10/06 03:01:56;;;;;;;3.07;2.87;;;23.00;61.00;;;;;;5115080;27;20937;-77
2023/10/06 03:04:26;;;;;;;3.50;3.20;;;22.90;61.00;;;;;;5131114;27;20537;-76
2023/10/06 03:06:59;;;;;;;2.60;2.40;;;22.90;61.00;;;;;;5110900;28;20616;-76
2023/10/06 03:09:38;;;;;;;2.90;2.70;;;22.90;61.00;;;;;;5124015;27;20447;-76
2023/10/06 03:12:15;;;;;;;3.30;2.90;;;22.90;60.90;;;;;;5107855;28;20452;-77
2023/10/06 03:14:44;;;;;;;3.00;2.80;;;22.90;61.10;;;;;;5109446;27;20447;-77
2023/10/06 03:17:13;;;;;;;3.97;2.93;;;22.90;61.10;;;;;;5084377;28;20457;-77
2023/10/06 03:19:43;;;;;;;4.70;3.30;;;22.90;61.00;;;;;;5093173;28;20491;-77
2023/10/06 03:22:13;;;;;;;3.10;2.80;;;22.90;60.90;;;;;;5091295;28;21000;-77
2023/10/06 03:24:53;;;;;;;3.17;2.93;;;22.90;60.90;;;;;;5094001;28;20748;-76
2023/10/06 03:27:23;;;;;;;5.00;3.50;;;22.90;61.30;;;;;;5085864;28;20460;-76
2023/10/06 03:29:55;;;;;;;2.97;2.77;;;22.90;61.10;;;;;;5104592;27;20539;-77
2023/10/06 03:32:32;;;;;;;3.50;2.90;;;22.90;61.00;;;;;;5114514;27;20498;-76
2023/10/06 03:35:14;;;;;;;3.10;2.90;;;22.90;61.00;;;;;;5109997;28;20452;-78
2023/10/06 03:37:51;;;;;;;3.40;3.10;;;22.90;61.20;;;;;;5107586;28;20501;-76
2023/10/06 03:40:30;;;;;;;3.10;2.87;;;22.80;61.20;;;;;;5110087;28;20459;-77
2023/10/06 03:43:04;;;;;;;3.77;3.47;;;22.90;61.20;;;;;;5106948;28;20464;-76
2023/10/06 03:45:34;;;;;;;3.90;3.60;;;22.80;60.90;;;;;;5095962;28;20455;-78
2023/10/06 03:48:12;;;;;;;3.23;2.73;;;22.80;60.80;;;;;;5103384;28;20454;-76
2023/10/06 03:50:45;;;;;;;3.63;2.73;;;22.80;60.80;;;;;;5087071;28;20466;-76
2023/10/06 03:53:15;;;;;;;3.53;3.10;;;22.80;60.80;;;;;;5093264;28;20477;-77
2023/10/06 03:55:46;;;;;;;3.30;3.00;;;22.80;60.90;;;;;;5101911;28;20447;-76
2023/10/06 03:58:16;;;;;;;3.70;3.30;;;22.80;60.80;;;;;;5113315;27;20423;-76
2023/10/06 04:00:48;;;;;;;3.17;2.87;;;22.80;61.00;;;;;;5122515;27;20513;-76
2023/10/06 04:03:18;;;;;;;3.60;3.17;;;22.80;61.00;;;;;;5105353;27;21212;-76
2023/10/06 04:05:48;;;;;;;3.50;3.20;;;22.80;61.00;;;;;;5122422;27;20443;-75
2023/10/06 04:08:20;;;;;;;3.83;3.33;;;22.90;60.80;;;;;;5110760;27;20496;-76
2023/10/06 04:10:54;;;;;;;3.50;3.13;;;22.90;60.80;;;;;;5110972;27;20554;-76
2023/10/06 04:13:23;;;;;;;3.43;3.13;;;22.90;60.70;;;;;;5103035;28;20475;-76
2023/10/06 04:15:53;;;;;;;3.20;2.93;;;22.90;60.70;;;;;;5098510;28;20468;-76
2023/10/06 04:18:23;;;;;;;4.20;3.20;;;23.00;60.60;;;;;;5098517;27;20827;-76
2023/10/06 04:20:53;;;;;;;3.63;3.30;;;23.00;60.60;;;;;;5105390;27;20464;-77
2023/10/06 04:23:23;;;;;;;2.70;2.50;;;23.00;60.70;;;;;;5105735;28;20499;-76
2023/10/06 04:25:56;;;;;;;3.40;3.00;;;23.00;60.60;;;;;;5097750;28;20545;-75
2023/10/06 04:28:27;;;;;;;3.97;3.20;;;23.10;60.40;;;;;;5104139;28;20460;-76
2023/10/06 04:31:00;;;;;;;3.37;3.10;;;23.10;60.50;;;;;;5100538;28;20954;-76
2023/10/06 04:33:29;;;;;;;3.63;3.33;;;23.10;60.40;;;;;;5105851;28;20443;-76
2023/10/06 04:36:07;;;;;;;5.17;3.90;;;23.10;60.30;;;;;;5105745;28;20471;-77
2023/10/06 04:38:37;;;;;;;4.20;3.57;;;23.10;60.30;;;;;;5105549;28;20514;-75
2023/10/06 04:41:08;;;;;;;3.80;3.40;;;23.10;60.30;;;;;;5110684;27;20954;-75
2023/10/06 04:43:39;;;;;;;5.10;3.47;;;23.10;60.40;;;;;;5116512;27;20502;-76
2023/10/06 04:46:07;;;;;;;5.73;3.80;;;23.10;60.50;;;;;;5099509;27;20521;-74
2023/10/06 04:48:36;;;;;;;4.37;3.93;;;23.00;60.30;;;;;;5086149;27;21480;-76
2023/10/06 04:51:05;;;;;;;4.30;3.70;;;23.00;60.40;;;;;;5104846;27;20461;-74
2023/10/06 04:53:35;;;;;;;4.03;3.50;;;23.00;60.10;;;;;;5097906;28;20460;-74
2023/10/06 04:56:04;;;;;;;4.93;4.43;;;23.00;60.30;;;;;;5104135;28;20529;-74
2023/10/06 04:58:36;;;;;;;4.20;3.80;;;23.00;60.80;;;;;;5105577;28;20456;-74
2023/10/06 05:01:07;;;;;;;3.13;2.93;;;23.00;60.80;;;;;;5099424;27;20478;-74
2023/10/06 05:03:43;;;;;;;3.97;3.53;;;23.00;60.60;;;;;;5104454;28;20492;-74
2023/10/06 05:06:15;;;;;;;3.80;3.50;;;23.00;60.60;;;;;;5099190;27;20495;-74
2023/10/06 05:08:46;;;;;;;3.47;2.93;;;22.90;60.60;;;;;;5101043;28;20444;-74
2023/10/06 05:11:15;;;;;;;4.83;4.43;;;22.90;60.60;;;;;;5094435;28;20498;-74
2023/10/06 05:13:47;;;;;;;5.03;3.50;;;22.90;60.70;;;;;;5098639;27;20544;-74
2023/10/06 05:16:18;;;;;;;5.80;3.20;;;22.90;60.60;;;;;;5101707;27;20448;-75
2023/10/06 05:18:48;;;;;;;3.90;3.60;;;22.90;60.60;;;;;;5099760;28;20455;-74
2023/10/06 05:21:17;;;;;;;4.93;3.90;;;22.90;60.70;;;;;;5108246;27;20468;-74
2023/10/06 05:23:45;;;;;;;3.57;3.27;;;22.80;61.00;;;;;;5104879;27;21221;-74
2023/10/06 05:26:14;;;;;;;6.27;4.27;;;22.90;61.40;;;;;;5108088;28;20498;-74
2023/10/06 05:28:47;;;;;;;5.07;3.07;;;22.80;61.40;;;;;;5103714;28;20453;-74
2023/10/06 05:31:16;;;;;;;4.77;3.80;;;22.80;61.50;;;;;;5096250;28;21058;-74
2023/10/06 05:33:45;;;;;;;4.13;3.60;;;22.80;61.50;;;;;;5099120;28;20487;-75
2023/10/06 05:36:14;;;;;;;4.03;3.07;;;22.80;61.30;;;;;;5112545;28;20445;-74
2023/10/06 05:38:48;;;;;;;5.60;3.20;;;22.80;61.40;;;;;;5105830;28;20459;-73
2023/10/06 05:41:16;;;;;;;5.07;3.80;;;22.80;61.40;;;;;;5100846;28;20452;-73
2023/10/06 05:43:46;;;;;;;4.03;3.63;;;22.80;61.80;;;;;;5103331;28;20471;-73
2023/10/06 05:46:14;;;;;;;4.20;3.33;;;22.80;62.00;;;;;;5098304;28;20958;-73
2023/10/06 05:48:43;;;;;;;4.17;3.80;;;22.80;61.90;;;;;;5105964;28;20939;-73
2023/10/06 05:51:14;;;;;;;4.17;3.30;;;22.80;62.10;;;;;;5085950;28;20475;-73
2023/10/06 05:53:43;;;;;;;3.70;3.40;;;22.80;62.00;;;;;;5106857;28;21002;-73
2023/10/06 05:56:13;;;;;;;5.00;3.50;;;22.80;61.90;;;;;;5103801;28;20475;-73
2023/10/06 05:58:43;;;;;;;4.17;3.73;;;22.80;61.80;;;;;;5094476;28;20561;-73
2023/10/06 06:01:14;;;;;;;6.30;4.23;;;22.80;62.50;;;;;;5091305;28;20470;-73
2023/10/06 06:03:45;;;;;;;7.83;4.00;;;22.80;62.10;;;;;;5092900;28;20457;-73
2023/10/06 06:06:22;;;;;;;4.33;3.80;;;22.90;61.90;;;;;;5102319;28;20490;-73
2023/10/06 06:08:51;;;;;;;4.07;3.67;;;22.90;61.90;;;;;;5108449;28;20467;-73
2023/10/06 06:11:20;;;;;;;4.30;3.50;;;22.90;61.80;;;;;;5109100;28;20462;-73
2023/10/06 06:13:49;;;;;;;5.73;4.23;;;22.90;61.70;;;;;;5111035;28;20432;-73
2023/10/06 06:16:35;;;;;;;3.30;3.03;;;22.90;61.60;;;;;;5110285;28;20435;-73
2023/10/06 06:19:05;;;;;;;4.10;3.70;;;22.90;61.50;;;;;;5113971;28;20440;-73
2023/10/06 06:21:34;;;;;;;3.93;3.20;;;22.90;61.40;;;;;;5103424;28;20783;-73
2023/10/06 06:24:05;;;;;;;4.03;3.63;;;22.90;61.50;;;;;;5111353;28;20472;-73
2023/10/06 06:26:36;;;;;;;5.50;4.53;;;22.90;61.30;;;;;;5113892;28;20428;-73
2023/10/06 06:29:04;;;;;;;6.33;4.00;;;22.90;61.20;;;;;;5093754;28;20844;-75
2023/10/06 06:31:33;;;;;;;4.10;3.70;;;22.90;61.30;;;;;;5098708;27;20447;-73
2023/10/06 06:34:04;;;;;;;3.63;3.33;;;22.90;61.20;;;;;;5106157;28;20492;-73
2023/10/06 06:36:33;;;;;;;4.30;3.60;;;22.90;61.40;;;;;;5107501;27;20458;-73
2023/10/06 06:39:03;;;;;;;3.73;3.30;;;22.90;61.50;;;;;;5098255;28;20555;-73
2023/10/06 06:41:33;;;;;;;5.20;4.20;;;22.90;61.40;;;;;;5103961;28;20546;-73
2023/10/06 06:44:01;;;;;;;7.70;3.73;;;22.90;61.50;;;;;;5107552;28;20475;-73
2023/10/06 06:46:30;;;;;;;4.77;3.40;;;22.90;61.60;;;;;;5099077;28;20452;-73
2023/10/06 06:48:59;;;;;;;4.30;3.30;;;22.90;61.40;;;;;;5108109;27;21440;-74
2023/10/06 06:51:30;;;;;;;5.53;3.50;;;22.90;61.50;;;;;;5097752;27;20474;-78
2023/10/06 06:53:59;;;;;;;4.83;3.43;;;22.90;61.80;;;;;;5105792;27;20460;-77
2023/10/06 06:56:28;;;;;;;5.73;3.60;;;22.90;62.60;;;;;;5108341;28;20451;-78
2023/10/06 06:58:59;;;;;;;4.63;3.10;;;22.90;62.70;;;;;;5102977;27;20521;-77
2023/10/06 07:01:28;;;;;;;4.17;3.77;;;22.90;63.00;;;;;;5104219;28;20451;-78
2023/10/06 07:04:00;;;;;;;6.80;3.60;;;23.00;63.00;;;;;;5107983;28;20455;-78
2023/10/06 07:06:31;;;;;;;3.93;3.53;;;23.00;63.10;;;;;;5103591;28;20485;-77
2023/10/06 07:09:00;;;;;;;4.10;3.70;;;23.00;63.00;;;;;;5112214;27;20497;-78
2023/10/06 07:11:29;;;;;;;4.27;3.60;;;23.00;63.10;;;;;;5108827;27;21021;-77
2023/10/06 07:13:57;;;;;;;6.97;3.30;;;23.10;63.10;;;;;;5110192;27;20479;-77
2023/10/06 07:16:25;;;;;;;6.40;4.33;;;23.10;63.10;;;;;;5105066;27;21057;-76
2023/10/06 07:18:54;;;;;;;6.70;3.20;;;23.10;63.20;;;;;;5093006;27;21222;-78
2023/10/06 07:21:23;;;;;;;7.90;3.83;;;23.10;63.10;;;;;;5094607;28;20498;-78
2023/10/06 07:23:56;;;;;;;5.73;4.40;;;23.10;62.90;;;;;;5107014;27;20463;-76
2023/10/06 07:26:24;;;;;;;5.17;3.60;;;23.20;62.60;;;;;;5090113;28;20847;-78
2023/10/06 07:28:54;;;;;;;5.63;3.53;;;23.20;62.90;;;;;;5106603;28;20969;-77
2023/10/06 07:31:24;;;;;;;3.60;3.30;;;23.20;62.90;;;;;;5106203;28;20459;-77
2023/10/06 07:33:54;;;;;;;4.20;3.80;;;23.20;62.90;;;;;;5105439;28;20484;-78
2023/10/06 07:36:22;;;;;;;5.50;3.77;;;23.20;62.90;;;;;;5108184;28;20513;-77
2023/10/06 07:38:51;;;;;;;3.70;3.30;;;23.30;62.90;;;;;;5105030;28;20949;-77
2023/10/06 07:41:23;;;;;;;4.40;4.00;;;23.30;62.80;;;;;;5104747;27;20476;-77
2023/10/06 07:43:52;;;;;;;3.73;3.33;;;23.30;62.60;;;;;;5106849;28;21008;-77
2023/10/06 07:46:21;;;;;;;3.63;3.33;;;23.30;62.60;;;;;;5107722;28;20478;-76
2023/10/06 07:48:51;;;;;;;3.90;3.60;;;23.40;62.50;;;;;;5106304;28;20456;-78
2023/10/06 07:51:19;;;;;;;3.57;3.27;;;23.40;62.60;;;;;;5106696;28;20482;-77
2023/10/06 07:53:48;;;;;;;4.70;3.57;;;23.40;62.50;;;;;;5102141;28;20472;-78
2023/10/06 07:56:18;;;;;;;3.60;3.30;;;23.40;62.50;;;;;;5105638;27;20471;-77
2023/10/06 07:58:50;;;;;;;5.03;3.70;;;23.40;62.40;;;;;;5098995;28;20480;-74
2023/10/06 08:01:20;;;;;;;3.80;3.23;;;23.40;62.30;;;;;;5101493;28;20470;-78
2023/10/06 08:03:48;;;;;;;4.50;3.73;;;23.40;62.20;;;;;;5105515;27;20848;-78
2023/10/06 08:06:16;;;;;;;3.77;3.43;;;23.50;62.10;;;;;;5104573;28;20980;-78
2023/10/06 08:08:45;;;;;;;4.00;3.70;;;23.50;62.00;;;;;;5108842;27;20498;-77
2023/10/06 08:11:13;;;;;;;4.63;3.40;;;23.50;62.00;;;;;;5102510;27;20869;-76
2023/10/06 08:13:42;;;;;;;3.73;3.40;;;23.50;61.80;;;;;;5101635;27;20942;-77
2023/10/06 08:16:13;;;;;;;4.83;4.27;;;23.50;61.90;;;;;;5085895;28;20871;-76
2023/10/06 08:18:41;;;;;;;4.13;3.70;;;23.50;61.80;;;;;;5101752;28;20456;-77
2023/10/06 08:21:10;;;;;;;3.67;3.37;;;23.50;61.70;;;;;;5105713;28;20800;-77
2023/10/06 08:23:39;;;;;;;3.23;2.93;;;23.50;61.70;;;;;;5105485;28;20471;-77
2023/10/06 08:26:08;;;;;;;5.10;3.63;;;23.50;61.70;;;;;;5106779;28;20824;-78
2023/10/06 08:28:37;;;;;;;3.20;2.90;;;23.60;61.60;;;;;;5103210;28;20477;-78
2023/10/06 08:31:05;;;;;;;3.27;3.07;;;23.60;61.70;;;;;;5107676;28;20456;-77
2023/10/06 08:33:36;;;;;;;3.97;3.63;;;23.60;61.60;;;;;;5084384;28;20901;-78
2023/10/06 08:36:08;;;;;;;4.27;3.63;;;23.60;61.70;;;;;;5104668;28;20496;-78
2023/10/06 08:38:36;;;;;;;4.80;3.70;;;23.60;61.60;;;;;;5106215;28;20480;-76
2023/10/06 08:41:07;;;;;;;4.40;3.47;;;23.60;61.60;;;;;;5111953;27;20461;-77
2023/10/06 08:43:39;;;;;;;4.13;3.53;;;23.60;61.60;;;;;;5105240;28;20462;-77
2023/10/06 08:46:08;;;;;;;3.43;3.13;;;23.60;61.50;;;;;;5101743;28;20461;-76
2023/10/06 08:48:40;;;;;;;4.80;3.97;;;23.60;61.60;;;;;;5105365;28;20448;-77
2023/10/06 08:51:14;;;;;;;3.43;3.00;;;23.60;61.60;;;;;;5105805;28;21019;-78
2023/10/06 08:53:45;;;;;;;4.33;3.20;;;23.60;61.50;;;;;;5103315;28;20544;-75
2023/10/06 08:56:14;;;;;;;7.43;3.90;;;23.60;61.50;;;;;;5108024;28;20616;-76
2023/10/06 08:58:44;;;;;;;7.87;3.70;;;23.60;61.50;;;;;;5105583;27;20461;-75
2023/10/06 09:01:14;;;;;;;3.43;3.13;;;23.70;61.50;;;;;;5099740;28;21405;-77
2023/10/06 09:03:46;;;;;;;4.47;3.10;;;23.70;61.20;;;;;;5101347;28;20875;-78
2023/10/06 09:06:15;;;;;;;3.33;3.03;;;23.70;61.30;;;;;;5104130;28;20473;-76
2023/10/06 09:08:44;;;;;;;3.53;3.23;;;23.80;61.20;;;;;;5104869;28;20464;-76
2023/10/06 09:11:13;;;;;;;4.10;3.80;;;23.80;61.20;;;;;;5100736;28;20461;-76
2023/10/06 09:13:41;;;;;;;4.07;3.67;;;23.80;61.10;;;;;;5111647;28;21280;-76
2023/10/06 09:16:11;;;;;;;3.70;3.33;;;23.80;61.00;;;;;;5084620;28;20918;-75
2023/10/06 09:18:40;;;;;;;3.23;3.03;;;23.80;60.90;;;;;;5101259;28;20457;-77
2023/10/06 09:21:15;;;;;;;3.83;3.10;;;23.80;61.00;;;;;;5079332;28;20451;-78
2023/10/06 09:23:44;;;;;;;3.70;3.07;;;23.80;61.10;;;;;;5101446;28;20464;-76
2023/10/06 09:26:15;;;;;;;4.87;3.40;;;23.90;61.00;;;;;;5105262;28;21672;-77
2023/10/06 09:28:51;;;;;;;4.37;3.60;;;23.90;61.00;;;;;;5105330;28;20481;-76
2023/10/06 09:31:35;;;;;;;4.40;4.00;;;23.90;61.10;;;;;;5095212;28;20502;-74
2023/10/06 09:34:09;;;;;;;4.27;3.43;;;23.90;61.00;;;;;;5102882;28;20482;-76
2023/10/06 09:36:42;;;;;;;3.80;3.40;;;24.00;61.00;;;;;;5104531;28;20539;-75
2023/10/06 09:39:25;;;;;;;5.27;4.13;;;24.00;61.00;;;;;;5103635;28;20474;-74
2023/10/06 09:41:55;;;;;;;3.90;3.27;;;24.00;61.00;;;;;;5105646;28;20462;-75
2023/10/06 09:44:25;;;;;;;3.50;3.20;;;24.00;61.10;;;;;;5105361;27;20466;-75
2023/10/06 09:46:54;;;;;;;4.50;3.97;;;24.00;61.30;;;;;;5105965;28;20468;-76
2023/10/06 09:49:24;;;;;;;3.80;3.50;;;24.00;61.50;;;;;;5104257;28;20510;-76
2023/10/06 09:51:56;;;;;;;4.20;3.80;;;24.00;61.70;;;;;;5106036;28;20454;-76
2023/10/06 09:54:25;;;;;;;4.00;3.40;;;24.00;61.60;;;;;;5109065;28;20455;-74
2023/10/06 09:56:55;;;;;;;4.80;3.50;;;24.00;61.50;;;;;;5111953;27;20992;-75
2023/10/06 09:59:25;;;;;;;3.87;3.50;;;24.00;61.40;;;;;;5109971;27;20455;-73
2023/10/06 10:01:56;;;;;;;4.73;3.53;;;24.00;61.50;;;;;;5103621;28;21037;-79
2023/10/06 10:04:30;;;;;;;4.07;3.70;;;24.00;61.60;;;;;;5113794;27;20453;-78
2023/10/06 10:07:02;;;;;;;4.17;3.77;;;24.00;61.90;;;;;;5104170;28;20484;-76
2023/10/06 10:09:52;;;;;;;6.47;3.00;;;24.00;62.10;;;;;;5110113;28;20482;-78
2023/10/06 10:12:34;;;;;;;4.03;3.60;;;24.00;62.20;;;;;;5108523;28;20947;-81
2023/10/06 10:15:19;;;;;;;3.90;3.23;;;24.00;62.20;;;;;;5108860;28;20471;-79
2023/10/06 10:17:56;;;;;;;3.97;3.67;;;24.00;62.20;;;;;;5107422;27;21001;-77
2023/10/06 10:20:25;;;;;;;3.90;2.87;;;24.10;62.10;;;;;;5115307;27;20468;-77
2023/10/06 10:22:59;;;;;;;3.50;3.20;;;24.00;62.10;;;;;;5109443;28;20461;-80
2023/10/06 10:25:30;;;;;;;4.00;3.60;;;24.10;62.10;;;;;;5108456;28;21561;-80
2023/10/06 10:28:17;;;;;;;4.97;3.10;;;24.10;62.00;;;;;;5103299;27;20510;-78
2023/10/06 10:30:56;;;;;;;4.03;3.63;;;24.20;61.80;;;;;;5106790;27;20464;-81
2023/10/06 10:33:29;;;;;;;3.90;3.60;;;24.20;61.70;;;;;;5109531;28;20500;-79
2023/10/06 10:36:20;;;;;;;3.53;3.23;;;24.30;61.50;;;;;;5107806;28;20446;-80
2023/10/06 10:39:07;;;;;;;3.10;2.83;;;24.40;61.30;;;;;;5108786;27;20476;-79
2023/10/06 10:41:37;;;;;;;3.20;2.90;;;24.50;61.10;;;;;;5107590;28;20458;-76
2023/10/06 10:44:07;;;;;;;3.80;3.37;;;24.80;60.60;;;;;;5090291;28;20820;-79
2023/10/06 10:46:56;;;;;;;3.73;3.37;;;25.00;60.20;;;;;;5107359;28;20498;-78
2023/10/06 10:49:24;;;;;;;3.33;2.83;;;25.30;59.70;;;;;;5110035;28;20489;-78
2023/10/06 10:51:55;;;;;;;4.73;3.27;;;25.50;59.20;;;;;;5110366;28;20455;-74
2023/10/06 10:54:28;;;;;;;3.40;2.80;;;25.60;58.90;;;;;;5105877;28;20462;-77
2023/10/06 10:57:02;;;;;;;4.50;3.80;;;25.70;58.50;;;;;;5108751;28;20443;-79
2023/10/06 11:00:12;;;;;;;3.40;3.07;;;25.80;58.30;;;;;;5102683;28;21166;-81
2023/10/06 11:02:42;;;;;;;4.27;2.90;;;25.90;58.20;;;;;;5103083;28;20513;-80
2023/10/06 11:05:11;;;;;;;2.80;2.60;;;26.10;57.90;;;;;;5102176;28;20544;-77
2023/10/06 11:07:41;;;;;;;4.93;3.57;;;26.10;57.70;;;;;;5105351;28;20493;-79
2023/10/06 11:10:14;;;;;;;3.57;3.23;;;26.00;57.70;;;;;;5103697;28;20513;-81
2023/10/06 11:12:42;;;;;;;3.40;3.20;;;26.00;57.80;;;;;;5110090;28;21218;-81
2023/10/06 11:15:20;;;;;;;3.40;3.10;;;25.90;57.90;;;;;;5108487;28;20947;-81
2023/10/06 11:17:48;;;;;;;3.83;3.53;;;25.90;58.00;;;;;;5109091;28;20509;-81
2023/10/06 11:20:22;;;;;;;3.13;2.90;;;25.90;58.00;;;;;;5107998;28;20975;-80
2023/10/06 11:22:55;;;;;;;3.07;2.77;;;25.90;58.00;;;;;;5106143;28;20455;-81
2023/10/06 11:25:28;;;;;;;3.33;3.03;;;26.00;57.90;;;;;;5107321;28;20488;-78
2023/10/06 11:27:58;;;;;;;3.83;3.43;;;26.00;58.00;;;;;;5108470;28;21063;-80
2023/10/06 11:30:28;;;;;;;3.20;2.87;;;26.00;58.00;;;;;;5108251;28;20459;-81
2023/10/06 11:32:57;;;;;;;3.77;3.47;;;26.00;57.90;;;;;;5105357;28;20484;-81
2023/10/06 11:35:26;;;;;;;3.43;3.13;;;26.10;57.90;;;;;;5113154;28;20769;-81
2023/10/06 11:37:55;;;;;;;3.40;3.10;;;26.10;57.80;;;;;;5106597;28;20462;-81
2023/10/06 11:40:25;;;;;;;2.63;2.43;;;26.10;57.90;;;;;;5108236;28;20457;-80
2023/10/06 11:42:54;;;;;;;3.10;2.90;;;26.10;57.90;;;;;;5101986;27;20461;-80
2023/10/06 11:45:25;;;;;;;4.60;4.20;;;26.10;58.00;;;;;;5107363;28;20505;-81
2023/10/06 11:47:55;;;;;;;4.13;3.73;;;26.10;57.90;;;;;;5099627;28;20476;-80
2023/10/06 11:50:24;;;;;;;4.20;3.60;;;26.20;57.90;;;;;;5110636;27;20459;-79
2023/10/06 11:52:55;;;;;;;4.67;4.17;;;26.10;57.90;;;;;;5095919;27;20453;-79
2023/10/06 11:55:34;;;;;;;4.50;4.10;;;26.10;58.00;;;;;;5094283;28;20881;-80
2023/10/06 11:58:04;;;;;;;5.00;4.50;;;26.10;58.10;;;;;;5106744;28;20444;-81
2023/10/06 12:00:41;;;;;;;4.40;4.00;;;26.10;58.20;;;;;;5100671;28;20543;-80
2023/10/06 12:03:16;;;;;;;4.20;3.87;;;26.10;58.20;;;;;;5101885;27;20815;-79
2023/10/06 12:05:55;;;;;;;4.60;4.10;;;26.20;58.10;;;;;;5101500;27;20916;-80
2023/10/06 12:08:24;;;;;;;5.50;5.00;;;26.20;58.10;;;;;;5107884;27;20471;-80
2023/10/06 12:11:03;;;;;;;5.30;4.80;;;26.20;58.20;;;;;;5113500;27;20437;-80
2023/10/06 12:13:32;;;;;;;6.80;5.27;;;26.20;58.20;;;;;;5108945;28;20963;-82
2023/10/06 12:16:11;;;;;;;9.17;5.93;;;26.10;58.30;;;;;;5097672;28;20502;-76
2023/10/06 12:18:39;;;;;;;6.17;5.57;;;26.20;58.30;;;;;;5102743;28;20477;-78
2023/10/06 12:21:11;;;;;;;5.90;5.03;;;26.30;58.20;;;;;;5103049;28;20844;-78
2023/10/06 12:23:39;;;;;;;8.37;6.33;;;26.30;58.20;;;;;;5104491;28;20786;-78
2023/10/06 12:26:09;;;;;;;6.23;5.63;;;26.40;58.20;;;;;;5104917;27;20444;-77
2023/10/06 12:28:38;;;;;;;6.33;4.97;;;26.40;58.20;;;;;;5103876;27;20537;-79
2023/10/06 12:31:07;;;;;;;8.27;5.47;;;26.50;58.10;;;;;;5100709;28;20466;-75
2023/10/06 12:33:35;;;;;;;6.17;5.57;;;26.50;58.10;;;;;;5107076;27;20485;-78
2023/10/06 12:36:08;;;;;;;6.50;5.00;;;26.60;58.00;;;;;;5101365;28;20459;-77
2023/10/06 12:38:37;;;;;;;8.10;4.80;;;26.60;58.00;;;;;;5104249;28;20508;-77
2023/10/06 12:41:06;;;;;;;12.90;5.90;;;26.60;58.00;;;;;;5106982;28;20564;-76
2023/10/06 12:43:36;;;;;;;7.33;5.20;;;26.60;58.10;;;;;;5104392;28;20456;-78
2023/10/06 12:46:08;;;;;;;6.80;5.00;;;26.60;58.10;;;;;;5104299;28;20529;-76
2023/10/06 12:48:38;;;;;;;6.93;5.53;;;26.60;58.10;;;;;;5105347;27;20985;-74
2023/10/06 12:51:11;;;;;;;5.07;4.50;;;26.60;58.20;;;;;;5107619;28;20546;-80
2023/10/06 12:53:40;;;;;;;5.37;4.87;;;26.60;58.20;;;;;;5101000;27;20449;-80
2023/10/06 12:56:09;;;;;;;4.60;4.30;;;26.60;58.20;;;;;;5099342;28;20820;-79
2023/10/06 12:58:39;;;;;;;5.57;5.03;;;26.60;58.20;;;;;;5107082;27;20798;-79
2023/10/06 13:01:08;;;;;;;6.27;4.90;;;26.60;58.10;;;;;;5106254;27;20445;-80
2023/10/06 13:03:37;;;;;;;5.67;4.83;;;26.60;58.20;;;;;;5092978;28;20464;-69
2023/10/06 13:06:06;;;;;;;5.17;4.67;;;26.60;58.30;;;;;;5104546;27;20462;-68
2023/10/06 13:08:38;;;;;;;6.60;4.20;;;26.60;58.20;;;;;;5100490;28;20952;-68
2023/10/06 13:11:06;;;;;;;6.17;5.10;;;26.70;58.00;;;;;;5099300;28;20455;-68